Tikehau — FAC6623 — position and weather

sailwx.info

Track history (hours):
 
Tides and Currents Weather Stations Pressure Air Temp Water Temp Dewpoint Dewpoint Depression Visibility Wind Speed Wind Dir Waves Ship Positions

Tikehau

Last reported at 2018-Jun-17 21:58 UTC. Time now 2018-Jun-17 22:09 UTC.
Position N 47°33' W 002°54'.

MMSI: 227334010.

Date/timePositionNaut miles runAvg speedWind from/ knotsBaromVisibWave heightAir tempDewpointWater temp
2018-Jun-17 21:58N 47°33' W 002°54'0 0.0
2018-Jun-17 21:28N 47°33' W 002°54'0 0.0
2018-Jun-17 20:58N 47°33' W 002°54'0 0.0
2018-Jun-17 20:28N 47°33' W 002°54'0 0.0
2018-Jun-17 19:58N 47°33' W 002°54'0 0.0
2018-Jun-17 19:28N 47°33' W 002°54'0 0.0
2018-Jun-17 18:58N 47°33' W 002°54'0 0.0
2018-Jun-17 18:28N 47°33' W 002°54'0 0.0
2018-Jun-17 17:58N 47°33' W 002°54'0 0.0
2018-Jun-17 17:28N 47°33' W 002°54'0 0.0
2018-Jun-17 16:58N 47°33' W 002°54'0 0.0
2018-Jun-17 16:28N 47°33' W 002°54'0 0.0
2018-Jun-17 15:58N 47°33' W 002°54'0 0.0
2018-Jun-17 15:25N 47°33' W 002°54'0 0.0
2018-Jun-17 14:58N 47°33' W 002°54'0 0.0
2018-Jun-17 14:28N 47°33' W 002°54'0 0.0
2018-Jun-17 13:52N 47°33' W 002°54'0 0.0
2018-Jun-17 13:22N 47°33' W 002°54'0 0.0
2018-Jun-17 12:01N 47°33' W 002°54'0 0.0
2018-Jun-17 11:52N 47°33' W 002°54'0 0.0
2018-Jun-17 10:40N 47°33' W 002°54'0 0.0
2018-Jun-17 10:25N 47°33' W 002°54'0 0.0
2018-Jun-17 09:52N 47°33' W 002°54'0 0.0
2018-Jun-17 09:28N 47°33' W 002°54'0 0.0
2018-Jun-17 08:58N 47°33' W 002°54'0 0.0
2018-Jun-17 08:28N 47°33' W 002°54'0 0.0
2018-Jun-17 07:58N 47°33' W 002°54'0 0.0
2018-Jun-17 07:31N 47°33' W 002°54'0 0.0
2018-Jun-17 06:58N 47°33' W 002°54'0 0.0
2018-Jun-17 06:28N 47°33' W 002°54'0 0.0
2018-Jun-17 05:58N 47°33' W 002°54'0 0.0
2018-Jun-17 05:28N 47°33' W 002°54'0 0.0
2018-Jun-17 04:58N 47°33' W 002°54'0 0.0
2018-Jun-17 04:28N 47°33' W 002°54'0 0.0
2018-Jun-17 03:58N 47°33' W 002°54'0 0.0
2018-Jun-17 03:25N 47°33' W 002°54'0 0.0
2018-Jun-17 02:55N 47°33' W 002°54'0 0.0
2018-Jun-17 02:25N 47°33' W 002°54'0 0.0
2018-Jun-17 01:58N 47°33' W 002°54'0 0.0
2018-Jun-17 01:25N 47°33' W 002°54'0 0.0
2018-Jun-17 00:58N 47°33' W 002°54'0 0.0
2018-Jun-17 00:28N 47°33' W 002°54'0 0.0
2018-Jun-16 23:55N 47°33' W 002°54'0 0.0
2018-Jun-16 23:22N 47°33' W 002°54'0 0.0
2018-Jun-16 22:58N 47°33' W 002°54'0 0.0
2018-Jun-16 22:25N 47°33' W 002°54'0 0.0
2018-Jun-16 21:58N 47°33' W 002°54'0 0.0
2018-Jun-16 21:28N 47°33' W 002°54'0 0.0
2018-Jun-16 20:58N 47°33' W 002°54'0 0.0
2018-Jun-16 20:28N 47°33' W 002°54'0 0.0
2018-Jun-16 19:58N 47°33' W 002°54'0 0.0
2018-Jun-16 19:25N 47°33' W 002°54'0 0.0
2018-Jun-16 18:58N 47°33' W 002°54'0 0.0
2018-Jun-16 18:28N 47°33' W 002°54'0 0.0
2018-Jun-16 17:58N 47°33' W 002°54'0 0.0
2018-Jun-16 17:28N 47°33' W 002°54'0 0.0
2018-Jun-16 16:58N 47°33' W 002°54'0 0.0
2018-Jun-16 16:28N 47°33' W 002°54'0 0.0
2018-Jun-16 15:52N 47°33' W 002°54'0 0.0
2018-Jun-16 15:28N 47°33' W 002°54'0 0.0
2018-Jun-16 14:54N 47°33' W 002°54'1 3.6
2018-Jun-16 14:30N 47°31' W 002°54'3 6.7
2018-Jun-16 14:00N 47°28' W 002°52'2 4.7
2018-Jun-16 13:29N 47°27' W 002°49'3 5.6
2018-Jun-16 12:59N 47°25' W 002°46'3 6.1
2018-Jun-16 12:30N 47°23' W 002°42'2 0.1
2018-Jun-14 12:17N 47°21' W 002°40'2 6.3
2018-Jun-14 11:57N 47°22' W 002°43'3 6.0
2018-Jun-14 11:28N 47°24' W 002°46'2 4.7
2018-Jun-14 11:00N 47°25' W 002°49'3 6.4
2018-Jun-14 10:28N 47°27' W 002°53'3 7.3
2018-Jun-14 10:00N 47°31' W 002°54'2 3.5
2018-Jun-14 09:25N 47°33' W 002°54'0 0.0
2018-Jun-14 08:58N 47°33' W 002°54'0 0.0
2018-Jun-14 08:28N 47°33' W 002°54'0 0.0
2018-Jun-14 07:58N 47°33' W 002°54'0 0.0
2018-Jun-14 07:28N 47°33' W 002°54'0 0.0
2018-Jun-14 06:55N 47°33' W 002°54'0 0.0
2018-Jun-14 06:28N 47°33' W 002°54'0 0.0
2018-Jun-14 05:58N 47°33' W 002°54'0 0.0
2018-Jun-14 05:28N 47°33' W 002°54'0 0.0
2018-Jun-14 04:58N 47°33' W 002°54'0 0.0
2018-Jun-14 04:28N 47°33' W 002°54'0 0.0
2018-Jun-14 03:55N 47°33' W 002°54'0 0.0
2018-Jun-14 03:28N 47°33' W 002°54'0 0.0
2018-Jun-14 02:58N 47°33' W 002°54'0 0.0
2018-Jun-14 02:25N 47°33' W 002°54'0 0.0
2018-Jun-14 01:58N 47°33' W 002°54'0 0.0
2018-Jun-14 01:28N 47°33' W 002°54'0 0.0
2018-Jun-14 00:58N 47°33' W 002°54'0 0.0
2018-Jun-14 00:28N 47°33' W 002°54'0 0.0
2018-Jun-13 23:55N 47°33' W 002°54'0 0.0
2018-Jun-13 23:28N 47°33' W 002°54'0 0.0
2018-Jun-13 22:55N 47°33' W 002°54'0 0.0
2018-Jun-13 22:28N 47°33' W 002°54'0 0.0
2018-Jun-13 21:58N 47°33' W 002°54'0 0.0
2018-Jun-13 21:25N 47°33' W 002°54'0 0.0
2018-Jun-13 20:58N 47°33' W 002°54'0 0.0
2018-Jun-13 20:28N 47°33' W 002°54'0 0.0
2018-Jun-13 19:58N 47°33' W 002°54'0 0.0
2018-Jun-13 19:28N 47°33' W 002°54'0 0.0
2018-Jun-13 18:55N 47°33' W 002°54'0 0.0
2018-Jun-13 18:28N 47°33' W 002°54'0 0.0
2018-Jun-13 17:55N 47°33' W 002°54'0 0.0
2018-Jun-13 17:25N 47°33' W 002°54'0 0.0
2018-Jun-13 16:58N 47°33' W 002°54'0 0.0
2018-Jun-13 16:28N 47°33' W 002°54'0 0.0
2018-Jun-13 15:58N 47°33' W 002°54'0 0.0
2018-Jun-13 15:28N 47°33' W 002°54'0 0.0
2018-Jun-13 14:58N 47°33' W 002°54'0 0.0
2018-Jun-13 14:28N 47°33' W 002°54'0 0.0
2018-Jun-13 13:49N 47°33' W 002°54'0 0.0
2018-Jun-13 13:28N 47°33' W 002°54'0 0.0
2018-Jun-13 12:58N 47°33' W 002°54'0 0.0
2018-Jun-13 12:28N 47°33' W 002°54'0 0.0
2018-Jun-13 11:55N 47°33' W 002°54'0 0.0
2018-Jun-13 11:28N 47°33' W 002°54'0 0.0
2018-Jun-13 10:55N 47°33' W 002°54'0 0.0
2018-Jun-13 10:28N 47°33' W 002°54'0 0.0
2018-Jun-13 09:58N 47°33' W 002°54'0 0.0
2018-Jun-13 09:28N 47°33' W 002°54'0 0.0
2018-Jun-13 08:58N 47°33' W 002°54'0 0.0
2018-Jun-13 08:25N 47°33' W 002°54'0 0.0
2018-Jun-13 07:58N 47°33' W 002°54'0 0.0
2018-Jun-13 07:28N 47°33' W 002°54'0 0.0
2018-Jun-13 06:58N 47°33' W 002°54'0 0.0
2018-Jun-13 06:22N 47°33' W 002°54'0 0.0
2018-Jun-13 05:58N 47°33' W 002°54'0 0.0
2018-Jun-13 05:25N 47°33' W 002°54'0 0.0
2018-Jun-13 04:58N 47°33' W 002°54'0 0.0
2018-Jun-13 04:28N 47°33' W 002°54'0 0.0
2018-Jun-13 03:55N 47°33' W 002°54'0 0.0
2018-Jun-13 03:28N 47°33' W 002°54'0 0.0
2018-Jun-13 02:58N 47°33' W 002°54'0 0.0
2018-Jun-13 02:28N 47°33' W 002°54'0 0.0
2018-Jun-13 01:58N 47°33' W 002°54'0 0.0
2018-Jun-13 01:28N 47°33' W 002°54'0 0.0
2018-Jun-13 00:58N 47°33' W 002°54'0 0.0
2018-Jun-13 00:28N 47°33' W 002°54'0 0.0
2018-Jun-12 23:58N 47°33' W 002°54'0 0.0
2018-Jun-12 23:28N 47°33' W 002°54'0 0.0
2018-Jun-12 22:55N 47°33' W 002°54'0 0.0
2018-Jun-12 22:28N 47°33' W 002°54'0 0.0
2018-Jun-12 21:55N 47°33' W 002°54'0 0.0
2018-Jun-12 21:28N 47°33' W 002°54'0 0.0
2018-Jun-12 20:58N 47°33' W 002°54'0 0.0
2018-Jun-12 20:28N 47°33' W 002°54'0 0.0
2018-Jun-12 19:58N 47°33' W 002°54'0 0.0
2018-Jun-12 19:28N 47°33' W 002°54'0 0.0
2018-Jun-12 18:58N 47°33' W 002°54'0 0.0
2018-Jun-12 18:28N 47°33' W 002°54'0 0.0
2018-Jun-12 17:58N 47°33' W 002°54'0 0.0
2018-Jun-12 17:28N 47°33' W 002°54'0 0.0
2018-Jun-12 16:58N 47°33' W 002°54'0 0.0
2018-Jun-12 16:28N 47°33' W 002°54'0 0.0
2018-Jun-12 15:58N 47°33' W 002°54'0 0.0
2018-Jun-12 15:25N 47°33' W 002°54'0 0.0
2018-Jun-12 14:58N 47°33' W 002°54'0 0.0
2018-Jun-12 14:25N 47°33' W 002°54'0 0.0
2018-Jun-12 13:58N 47°33' W 002°54'0 0.0
2018-Jun-12 13:28N 47°33' W 002°54'0 0.0
2018-Jun-12 12:58N 47°33' W 002°54'0 0.0
2018-Jun-12 12:28N 47°33' W 002°54'0 0.0
2018-Jun-12 11:58N 47°33' W 002°54'0 0.0
2018-Jun-12 11:28N 47°33' W 002°54'0 0.0
2018-Jun-12 10:58N 47°33' W 002°54'0 0.0
2018-Jun-12 10:28N 47°33' W 002°54'0 0.0
2018-Jun-12 09:58N 47°33' W 002°54'0 0.0
2018-Jun-12 09:28N 47°33' W 002°54'0 0.0
2018-Jun-12 08:58N 47°33' W 002°54'0 0.0
2018-Jun-12 08:25N 47°33' W 002°54'0 0.0
2018-Jun-12 07:58N 47°33' W 002°54'0 0.0
2018-Jun-12 07:28N 47°33' W 002°54'0 0.0
2018-Jun-12 06:58N 47°33' W 002°54'0 0.0
2018-Jun-12 06:28N 47°33' W 002°54'0 0.0
2018-Jun-12 05:58N 47°33' W 002°54'0 0.0
2018-Jun-12 05:25N 47°33' W 002°54'0 0.0
2018-Jun-12 04:55N 47°33' W 002°54'0 0.0
2018-Jun-12 04:28N 47°33' W 002°54'0 0.0
2018-Jun-12 03:58N 47°33' W 002°54'0 0.0
2018-Jun-12 03:28N 47°33' W 002°54'0 0.0
2018-Jun-12 02:52N 47°33' W 002°54'0 0.0
2018-Jun-12 02:22N 47°33' W 002°54'0 0.0
2018-Jun-12 01:55N 47°33' W 002°54'0 0.0
2018-Jun-12 01:22N 47°33' W 002°54'0 0.0
2018-Jun-12 00:58N 47°33' W 002°54'0 0.0
2018-Jun-12 00:28N 47°33' W 002°54'0 0.0
2018-Jun-11 23:34N 47°33' W 002°54'0 0.0
2018-Jun-11 23:28N 47°33' W 002°54'0 0.0
2018-Jun-11 22:58N 47°33' W 002°54'0 0.0
2018-Jun-11 22:13N 47°33' W 002°54'0 0.0
2018-Jun-11 21:58N 47°33' W 002°54'0 0.0
2018-Jun-11 21:28N 47°33' W 002°54'0 0.0
2018-Jun-11 20:58N 47°33' W 002°54'0 0.0
2018-Jun-11 20:28N 47°33' W 002°54'0 0.0
2018-Jun-11 16:34N 47°33' W 002°54'0 0.0
2018-Jun-11 16:10N 47°33' W 002°54'0 0.0
2018-Jun-11 15:49N 47°33' W 002°54'0 0.0
2018-Jun-11 15:28N 47°33' W 002°54'0 0.0
2018-Jun-11 14:55N 47°33' W 002°54'0 0.0
2018-Jun-11 14:28N 47°33' W 002°54'0 0.0
2018-Jun-11 13:58N 47°33' W 002°54'0 0.0
2018-Jun-11 13:28N 47°33' W 002°54'0 0.0
2018-Jun-11 12:58N 47°33' W 002°54'0 0.0
2018-Jun-11 12:28N 47°33' W 002°54'0 0.0
2018-Jun-11 11:58N 47°33' W 002°54'0 0.0
2018-Jun-11 11:28N 47°33' W 002°54'0 0.0
2018-Jun-11 10:58N 47°33' W 002°54'0 0.0
2018-Jun-11 10:28N 47°33' W 002°54'0 0.0
2018-Jun-11 09:58N 47°33' W 002°54'0 0.0
2018-Jun-11 09:28N 47°33' W 002°54'0 0.0
2018-Jun-11 08:58N 47°33' W 002°54'0 0.0
2018-Jun-11 08:28N 47°33' W 002°54'0 0.0
2018-Jun-11 07:58N 47°33' W 002°54'0 0.0
2018-Jun-11 07:28N 47°33' W 002°54'0 0.0
2018-Jun-11 06:58N 47°33' W 002°54'0 0.0
2018-Jun-11 06:28N 47°33' W 002°54'0 0.0
2018-Jun-11 05:55N 47°33' W 002°54'0 0.0
2018-Jun-11 05:28N 47°33' W 002°54'0 0.0
2018-Jun-11 04:55N 47°33' W 002°54'0 0.0
2018-Jun-11 04:28N 47°33' W 002°54'0 0.0
2018-Jun-11 03:58N 47°33' W 002°54'0 0.0
2018-Jun-11 03:28N 47°33' W 002°54'0 0.0
2018-Jun-11 02:55N 47°33' W 002°54'0 0.0
2018-Jun-11 02:25N 47°33' W 002°54'0 0.0
2018-Jun-11 01:58N 47°33' W 002°54'0 0.0
2018-Jun-11 01:25N 47°33' W 002°54'0 0.0
2018-Jun-11 00:58N 47°33' W 002°54'0 0.0
2018-Jun-11 00:28N 47°33' W 002°54'0 0.0
2018-Jun-10 23:58N 47°33' W 002°54'0 0.0
2018-Jun-10 23:25N 47°33' W 002°54'0 0.0
2018-Jun-10 22:55N 47°33' W 002°54'0 0.0
2018-Jun-10 22:28N 47°33' W 002°54'0 0.0
2018-Jun-10 21:58N 47°33' W 002°54'0 0.0
2018-Jun-10 21:28N 47°33' W 002°54'0 0.0
2018-Jun-10 20:55N 47°33' W 002°54'0 0.0
2018-Jun-10 20:28N 47°33' W 002°54'0 0.0
2018-Jun-10 19:58N 47°33' W 002°54'0 0.0
2018-Jun-10 19:28N 47°33' W 002°54'0 0.0
2018-Jun-10 18:58N 47°33' W 002°54'0 0.0
2018-Jun-10 18:25N 47°33' W 002°54'0 0.0
2018-Jun-10 17:55N 47°33' W 002°54'0 0.0
2018-Jun-10 17:28N 47°33' W 002°54'0 0.0
2018-Jun-10 16:55N 47°33' W 002°54'0 0.0
2018-Jun-10 16:28N 47°33' W 002°54'0 0.0
2018-Jun-10 15:55N 47°33' W 002°54'0 0.0
2018-Jun-10 14:52N 47°33' W 002°54'0 0.0
2018-Jun-10 13:58N 47°33' W 002°54'0 0.0
2018-Jun-10 13:28N 47°33' W 002°54'0 0.0
2018-Jun-10 11:37N 47°33' W 002°54'0 0.0
2018-Jun-10 11:28N 47°33' W 002°54'0 0.0
2018-Jun-10 10:58N 47°33' W 002°54'0 0.0
2018-Jun-10 10:28N 47°33' W 002°54'0 0.0
2018-Jun-10 09:58N 47°33' W 002°54'0 0.0
2018-Jun-10 09:28N 47°33' W 002°54'0 0.0
2018-Jun-10 08:58N 47°33' W 002°54'0 0.0
2018-Jun-10 08:28N 47°33' W 002°54'0 0.0
2018-Jun-10 07:58N 47°33' W 002°54'0 0.0
2018-Jun-10 07:28N 47°33' W 002°54'0 0.0
2018-Jun-10 06:58N 47°33' W 002°54'0 0.0
2018-Jun-10 06:13N 47°33' W 002°54'0 0.0
2018-Jun-10 05:55N 47°33' W 002°54'0 0.0
2018-Jun-10 05:28N 47°33' W 002°54'0 0.0
2018-Jun-10 04:58N 47°33' W 002°54'0 0.0
2018-Jun-10 04:28N 47°33' W 002°54'0 0.0
2018-Jun-10 03:58N 47°33' W 002°54'0 0.0
2018-Jun-10 03:28N 47°33' W 002°54'0 0.0
2018-Jun-10 02:55N 47°33' W 002°54'0 0.0
2018-Jun-10 02:28N 47°33' W 002°54'0 0.0
2018-Jun-10 01:58N 47°33' W 002°54'0 0.0
2018-Jun-10 01:28N 47°33' W 002°54'0 0.0
2018-Jun-10 00:58N 47°33' W 002°54'0 0.0
2018-Jun-10 00:28N 47°33' W 002°54'0 0.0
2018-Jun-09 23:55N 47°33' W 002°54'0 0.0
2018-Jun-09 23:25N 47°33' W 002°54'0 0.0
2018-Jun-09 22:58N 47°33' W 002°54'0 0.0
2018-Jun-09 22:25N 47°33' W 002°54'0 0.0
2018-Jun-09 21:58N 47°33' W 002°54'0 0.0
2018-Jun-09 21:28N 47°33' W 002°54'0 0.0
2018-Jun-09 20:58N 47°33' W 002°54'0 0.0
2018-Jun-09 20:28N 47°33' W 002°54'0 0.0
2018-Jun-09 19:58N 47°33' W 002°54'0 0.0
2018-Jun-09 19:28N 47°33' W 002°54'0 0.0
2018-Jun-09 18:58N 47°33' W 002°54'0 0.0
2018-Jun-09 18:28N 47°33' W 002°54'0 0.0
2018-Jun-09 17:58N 47°33' W 002°54'0 0.0
2018-Jun-09 17:25N 47°33' W 002°54'0 0.0
2018-Jun-09 16:58N 47°33' W 002°54'0 0.0
2018-Jun-09 16:28N 47°33' W 002°54'0 0.0
2018-Jun-09 15:55N 47°33' W 002°54'0 0.0
2018-Jun-09 14:58N 47°33' W 002°54'0 0.0
2018-Jun-09 14:25N 47°33' W 002°54'0 0.0
2018-Jun-09 13:58N 47°33' W 002°54'0 0.0
2018-Jun-09 13:28N 47°33' W 002°54'0 0.0
2018-Jun-09 12:58N 47°33' W 002°54'0 0.0
2018-Jun-09 12:28N 47°33' W 002°54'0 0.0
2018-Jun-09 11:10N 47°33' W 002°54'0 0.0
2018-Jun-09 10:52N 47°33' W 002°54'0 0.0
2018-Jun-09 10:28N 47°33' W 002°54'0 0.0
2018-Jun-09 09:58N 47°33' W 002°54'0 0.0
2018-Jun-09 09:28N 47°33' W 002°54'0 0.0
2018-Jun-09 08:58N 47°33' W 002°54'0 0.0
2018-Jun-09 08:28N 47°33' W 002°54'0 0.0
2018-Jun-09 07:58N 47°33' W 002°54'0 0.0
2018-Jun-09 07:28N 47°33' W 002°54'0 0.0
2018-Jun-09 06:19N 47°33' W 002°54'0 0.0
2018-Jun-09 05:58N 47°33' W 002°54'0 0.0
2018-Jun-09 05:28N 47°33' W 002°54'0 0.0
2018-Jun-09 00:40N 47°33' W 002°54'0 0.0
2018-Jun-09 00:28N 47°33' W 002°54'0 0.0
2018-Jun-08 23:58N 47°33' W 002°54'0 0.0
2018-Jun-08 23:25N 47°33' W 002°54'0 0.0
2018-Jun-08 22:58N 47°33' W 002°54'0 0.0
2018-Jun-08 22:28N 47°33' W 002°54'0 0.0
2018-Jun-08 21:55N 47°33' W 002°54'0 0.0
2018-Jun-08 21:28N 47°33' W 002°54'0 0.0
2018-Jun-08 20:55N 47°33' W 002°54'0 0.0
2018-Jun-08 20:28N 47°33' W 002°54'0 0.0
2018-Jun-08 19:52N 47°33' W 002°54'0 0.0
2018-Jun-08 19:28N 47°33' W 002°54'0 0.1
2018-Jun-08 19:00N 47°33' W 002°54'1 2.4
2018-Jun-08 18:29N 47°31' W 002°54'3 6.6
2018-Jun-08 18:00N 47°29' W 002°51'3 7.0
2018-Jun-08 17:31N 47°26' W 002°48'4 6.9
2018-Jun-08 17:00N 47°24' W 002°45'4 7.1
2018-Jun-08 16:30N 47°22' W 002°40'  
Track history (hours):
 
Tides and Currents Weather Stations Pressure Air Temp Water Temp Dewpoint Dewpoint Depression Visibility Wind Speed Wind Dir Waves Ship Positions

Tikehau

Last reported at 2018-Jun-17 21:58 UTC. Time now 2018-Jun-17 22:09 UTC.
Position N 47°33' W 002°54'.

MMSI: 227334010.

Date/timePositionNaut miles runAvg speedWind from/ knotsBaromVisibWave heightAir tempDewpointWater temp
2018-Jun-17 21:58N 47°33' W 002°54'0 0.0
2018-Jun-17 21:28N 47°33' W 002°54'0 0.0
2018-Jun-17 20:58N 47°33' W 002°54'0 0.0
2018-Jun-17 20:28N 47°33' W 002°54'0 0.0
2018-Jun-17 19:58N 47°33' W 002°54'0 0.0
2018-Jun-17 19:28N 47°33' W 002°54'0 0.0
2018-Jun-17 18:58N 47°33' W 002°54'0 0.0
2018-Jun-17 18:28N 47°33' W 002°54'0 0.0
2018-Jun-17 17:58N 47°33' W 002°54'0 0.0
2018-Jun-17 17:28N 47°33' W 002°54'0 0.0
2018-Jun-17 16:58N 47°33' W 002°54'0 0.0
2018-Jun-17 16:28N 47°33' W 002°54'0 0.0
2018-Jun-17 15:58N 47°33' W 002°54'0 0.0
2018-Jun-17 15:25N 47°33' W 002°54'0 0.0
2018-Jun-17 14:58N 47°33' W 002°54'0 0.0
2018-Jun-17 14:28N 47°33' W 002°54'0 0.0
2018-Jun-17 13:52N 47°33' W 002°54'0 0.0
2018-Jun-17 13:22N 47°33' W 002°54'0 0.0
2018-Jun-17 12:01N 47°33' W 002°54'0 0.0
2018-Jun-17 11:52N 47°33' W 002°54'0 0.0
2018-Jun-17 10:40N 47°33' W 002°54'0 0.0
2018-Jun-17 10:25N 47°33' W 002°54'0 0.0
2018-Jun-17 09:52N 47°33' W 002°54'0 0.0
2018-Jun-17 09:28N 47°33' W 002°54'0 0.0
2018-Jun-17 08:58N 47°33' W 002°54'0 0.0
2018-Jun-17 08:28N 47°33' W 002°54'0 0.0
2018-Jun-17 07:58N 47°33' W 002°54'0 0.0
2018-Jun-17 07:31N 47°33' W 002°54'0 0.0
2018-Jun-17 06:58N 47°33' W 002°54'0 0.0
2018-Jun-17 06:28N 47°33' W 002°54'0 0.0
2018-Jun-17 05:58N 47°33' W 002°54'0 0.0
2018-Jun-17 05:28N 47°33' W 002°54'0 0.0
2018-Jun-17 04:58N 47°33' W 002°54'0 0.0
2018-Jun-17 04:28N 47°33' W 002°54'0 0.0
2018-Jun-17 03:58N 47°33' W 002°54'0 0.0
2018-Jun-17 03:25N 47°33' W 002°54'0 0.0
2018-Jun-17 02:55N 47°33' W 002°54'0 0.0
2018-Jun-17 02:25N 47°33' W 002°54'0 0.0
2018-Jun-17 01:58N 47°33' W 002°54'0 0.0
2018-Jun-17 01:25N 47°33' W 002°54'0 0.0
2018-Jun-17 00:58N 47°33' W 002°54'0 0.0
2018-Jun-17 00:28N 47°33' W 002°54'0 0.0
2018-Jun-16 23:55N 47°33' W 002°54'0 0.0
2018-Jun-16 23:22N 47°33' W 002°54'0 0.0
2018-Jun-16 22:58N 47°33' W 002°54'0 0.0
2018-Jun-16 22:25N 47°33' W 002°54'0 0.0
2018-Jun-16 21:58N 47°33' W 002°54'0 0.0
2018-Jun-16 21:28N 47°33' W 002°54'0 0.0
2018-Jun-16 20:58N 47°33' W 002°54'0 0.0
2018-Jun-16 20:28N 47°33' W 002°54'0 0.0
2018-Jun-16 19:58N 47°33' W 002°54'0 0.0
2018-Jun-16 19:25N 47°33' W 002°54'0 0.0
2018-Jun-16 18:58N 47°33' W 002°54'0 0.0
2018-Jun-16 18:28N 47°33' W 002°54'0 0.0
2018-Jun-16 17:58N 47°33' W 002°54'0 0.0
2018-Jun-16 17:28N 47°33' W 002°54'0 0.0
2018-Jun-16 16:58N 47°33' W 002°54'0 0.0
2018-Jun-16 16:28N 47°33' W 002°54'0 0.0
2018-Jun-16 15:52N 47°33' W 002°54'0 0.0
2018-Jun-16 15:28N 47°33' W 002°54'0 0.0
2018-Jun-16 14:54N 47°33' W 002°54'1 3.6
2018-Jun-16 14:30N 47°31' W 002°54'3 6.7
2018-Jun-16 14:00N 47°28' W 002°52'2 4.7
2018-Jun-16 13:29N 47°27' W 002°49'3 5.6
2018-Jun-16 12:59N 47°25' W 002°46'3 6.1
2018-Jun-16 12:30N 47°23' W 002°42'2 0.1
2018-Jun-14 12:17N 47°21' W 002°40'2 6.3
2018-Jun-14 11:57N 47°22' W 002°43'3 6.0
2018-Jun-14 11:28N 47°24' W 002°46'2 4.7
2018-Jun-14 11:00N 47°25' W 002°49'3 6.4
2018-Jun-14 10:28N 47°27' W 002°53'3 7.3
2018-Jun-14 10:00N 47°31' W 002°54'2 3.5
2018-Jun-14 09:25N 47°33' W 002°54'0 0.0
2018-Jun-14 08:58N 47°33' W 002°54'0 0.0
2018-Jun-14 08:28N 47°33' W 002°54'0 0.0
2018-Jun-14 07:58N 47°33' W 002°54'0 0.0
2018-Jun-14 07:28N 47°33' W 002°54'0 0.0
2018-Jun-14 06:55N 47°33' W 002°54'0 0.0
2018-Jun-14 06:28N 47°33' W 002°54'0 0.0
2018-Jun-14 05:58N 47°33' W 002°54'0 0.0
2018-Jun-14 05:28N 47°33' W 002°54'0 0.0
2018-Jun-14 04:58N 47°33' W 002°54'0 0.0
2018-Jun-14 04:28N 47°33' W 002°54'0 0.0
2018-Jun-14 03:55N 47°33' W 002°54'0 0.0
2018-Jun-14 03:28N 47°33' W 002°54'0 0.0
2018-Jun-14 02:58N 47°33' W 002°54'0 0.0
2018-Jun-14 02:25N 47°33' W 002°54'0 0.0
2018-Jun-14 01:58N 47°33' W 002°54'0 0.0
2018-Jun-14 01:28N 47°33' W 002°54'0 0.0
2018-Jun-14 00:58N 47°33' W 002°54'0 0.0
2018-Jun-14 00:28N 47°33' W 002°54'0 0.0
2018-Jun-13 23:55N 47°33' W 002°54'0 0.0
2018-Jun-13 23:28N 47°33' W 002°54'0 0.0
2018-Jun-13 22:55N 47°33' W 002°54'0 0.0
2018-Jun-13 22:28N 47°33' W 002°54'0 0.0
2018-Jun-13 21:58N 47°33' W 002°54'0 0.0
2018-Jun-13 21:25N 47°33' W 002°54'0 0.0
2018-Jun-13 20:58N 47°33' W 002°54'0 0.0
2018-Jun-13 20:28N 47°33' W 002°54'0 0.0
2018-Jun-13 19:58N 47°33' W 002°54'0 0.0
2018-Jun-13 19:28N 47°33' W 002°54'0 0.0
2018-Jun-13 18:55N 47°33' W 002°54'0 0.0
2018-Jun-13 18:28N 47°33' W 002°54'0 0.0
2018-Jun-13 17:55N 47°33' W 002°54'0 0.0
2018-Jun-13 17:25N 47°33' W 002°54'0 0.0
2018-Jun-13 16:58N 47°33' W 002°54'0 0.0
2018-Jun-13 16:28N 47°33' W 002°54'0 0.0
2018-Jun-13 15:58N 47°33' W 002°54'0 0.0
2018-Jun-13 15:28N 47°33' W 002°54'0 0.0
2018-Jun-13 14:58N 47°33' W 002°54'0 0.0
2018-Jun-13 14:28N 47°33' W 002°54'0 0.0
2018-Jun-13 13:49N 47°33' W 002°54'0 0.0
2018-Jun-13 13:28N 47°33' W 002°54'0 0.0
2018-Jun-13 12:58N 47°33' W 002°54'0 0.0
2018-Jun-13 12:28N 47°33' W 002°54'0 0.0
2018-Jun-13 11:55N 47°33' W 002°54'0 0.0
2018-Jun-13 11:28N 47°33' W 002°54'0 0.0
2018-Jun-13 10:55N 47°33' W 002°54'0 0.0
2018-Jun-13 10:28N 47°33' W 002°54'0 0.0
2018-Jun-13 09:58N 47°33' W 002°54'0 0.0
2018-Jun-13 09:28N 47°33' W 002°54'0 0.0
2018-Jun-13 08:58N 47°33' W 002°54'0 0.0
2018-Jun-13 08:25N 47°33' W 002°54'0 0.0
2018-Jun-13 07:58N 47°33' W 002°54'0 0.0
2018-Jun-13 07:28N 47°33' W 002°54'0 0.0
2018-Jun-13 06:58N 47°33' W 002°54'0 0.0
2018-Jun-13 06:22N 47°33' W 002°54'0 0.0
2018-Jun-13 05:58N 47°33' W 002°54'0 0.0
2018-Jun-13 05:25N 47°33' W 002°54'0 0.0
2018-Jun-13 04:58N 47°33' W 002°54'0 0.0
2018-Jun-13 04:28N 47°33' W 002°54'0 0.0
2018-Jun-13 03:55N 47°33' W 002°54'0 0.0
2018-Jun-13 03:28N 47°33' W 002°54'0 0.0
2018-Jun-13 02:58N 47°33' W 002°54'0 0.0
2018-Jun-13 02:28N 47°33' W 002°54'0 0.0
2018-Jun-13 01:58N 47°33' W 002°54'0 0.0
2018-Jun-13 01:28N 47°33' W 002°54'0 0.0
2018-Jun-13 00:58N 47°33' W 002°54'0 0.0
2018-Jun-13 00:28N 47°33' W 002°54'0 0.0
2018-Jun-12 23:58N 47°33' W 002°54'0 0.0
2018-Jun-12 23:28N 47°33' W 002°54'0 0.0
2018-Jun-12 22:55N 47°33' W 002°54'0 0.0
2018-Jun-12 22:28N 47°33' W 002°54'0 0.0
2018-Jun-12 21:55N 47°33' W 002°54'0 0.0
2018-Jun-12 21:28N 47°33' W 002°54'0 0.0
2018-Jun-12 20:58N 47°33' W 002°54'0 0.0
2018-Jun-12 20:28N 47°33' W 002°54'0 0.0
2018-Jun-12 19:58N 47°33' W 002°54'0 0.0
2018-Jun-12 19:28N 47°33' W 002°54'0 0.0
2018-Jun-12 18:58N 47°33' W 002°54'0 0.0
2018-Jun-12 18:28N 47°33' W 002°54'0 0.0
2018-Jun-12 17:58N 47°33' W 002°54'0 0.0
2018-Jun-12 17:28N 47°33' W 002°54'0 0.0
2018-Jun-12 16:58N 47°33' W 002°54'0 0.0
2018-Jun-12 16:28N 47°33' W 002°54'0 0.0
2018-Jun-12 15:58N 47°33' W 002°54'0 0.0
2018-Jun-12 15:25N 47°33' W 002°54'0 0.0
2018-Jun-12 14:58N 47°33' W 002°54'0 0.0
2018-Jun-12 14:25N 47°33' W 002°54'0 0.0
2018-Jun-12 13:58N 47°33' W 002°54'0 0.0
2018-Jun-12 13:28N 47°33' W 002°54'0 0.0
2018-Jun-12 12:58N 47°33' W 002°54'0 0.0
2018-Jun-12 12:28N 47°33' W 002°54'0 0.0
2018-Jun-12 11:58N 47°33' W 002°54'0 0.0
2018-Jun-12 11:28N 47°33' W 002°54'0 0.0
2018-Jun-12 10:58N 47°33' W 002°54'0 0.0
2018-Jun-12 10:28N 47°33' W 002°54'0 0.0
2018-Jun-12 09:58N 47°33' W 002°54'0 0.0
2018-Jun-12 09:28N 47°33' W 002°54'0 0.0
2018-Jun-12 08:58N 47°33' W 002°54'0 0.0
2018-Jun-12 08:25N 47°33' W 002°54'0 0.0
2018-Jun-12 07:58N 47°33' W 002°54'0 0.0
2018-Jun-12 07:28N 47°33' W 002°54'0 0.0
2018-Jun-12 06:58N 47°33' W 002°54'0 0.0
2018-Jun-12 06:28N 47°33' W 002°54'0 0.0
2018-Jun-12 05:58N 47°33' W 002°54'0 0.0
2018-Jun-12 05:25N 47°33' W 002°54'0 0.0
2018-Jun-12 04:55N 47°33' W 002°54'0 0.0
2018-Jun-12 04:28N 47°33' W 002°54'0 0.0
2018-Jun-12 03:58N 47°33' W 002°54'0 0.0
2018-Jun-12 03:28N 47°33' W 002°54'0 0.0
2018-Jun-12 02:52N 47°33' W 002°54'0 0.0
2018-Jun-12 02:22N 47°33' W 002°54'0 0.0
2018-Jun-12 01:55N 47°33' W 002°54'0 0.0
2018-Jun-12 01:22N 47°33' W 002°54'0 0.0
2018-Jun-12 00:58N 47°33' W 002°54'0 0.0
2018-Jun-12 00:28N 47°33' W 002°54'0 0.0
2018-Jun-11 23:34N 47°33' W 002°54'0 0.0
2018-Jun-11 23:28N 47°33' W 002°54'0 0.0
2018-Jun-11 22:58N 47°33' W 002°54'0 0.0
2018-Jun-11 22:13N 47°33' W 002°54'0 0.0
2018-Jun-11 21:58N 47°33' W 002°54'0 0.0
2018-Jun-11 21:28N 47°33' W 002°54'0 0.0
2018-Jun-11 20:58N 47°33' W 002°54'0 0.0
2018-Jun-11 20:28N 47°33' W 002°54'0 0.0
2018-Jun-11 16:34N 47°33' W 002°54'0 0.0
2018-Jun-11 16:10N 47°33' W 002°54'0 0.0
2018-Jun-11 15:49N 47°33' W 002°54'0 0.0
2018-Jun-11 15:28N 47°33' W 002°54'0 0.0
2018-Jun-11 14:55N 47°33' W 002°54'0 0.0
2018-Jun-11 14:28N 47°33' W 002°54'0 0.0
2018-Jun-11 13:58N 47°33' W 002°54'0 0.0
2018-Jun-11 13:28N 47°33' W 002°54'0 0.0
2018-Jun-11 12:58N 47°33' W 002°54'0 0.0
2018-Jun-11 12:28N 47°33' W 002°54'0 0.0
2018-Jun-11 11:58N 47°33' W 002°54'0 0.0
2018-Jun-11 11:28N 47°33' W 002°54'0 0.0
2018-Jun-11 10:58N 47°33' W 002°54'0 0.0
2018-Jun-11 10:28N 47°33' W 002°54'0 0.0
2018-Jun-11 09:58N 47°33' W 002°54'0 0.0
2018-Jun-11 09:28N 47°33' W 002°54'0 0.0
2018-Jun-11 08:58N 47°33' W 002°54'0 0.0
2018-Jun-11 08:28N 47°33' W 002°54'0 0.0
2018-Jun-11 07:58N 47°33' W 002°54'0 0.0
2018-Jun-11 07:28N 47°33' W 002°54'0 0.0
2018-Jun-11 06:58N 47°33' W 002°54'0 0.0
2018-Jun-11 06:28N 47°33' W 002°54'0 0.0
2018-Jun-11 05:55N 47°33' W 002°54'0 0.0
2018-Jun-11 05:28N 47°33' W 002°54'0 0.0
2018-Jun-11 04:55N 47°33' W 002°54'0 0.0
2018-Jun-11 04:28N 47°33' W 002°54'0 0.0
2018-Jun-11 03:58N 47°33' W 002°54'0 0.0
2018-Jun-11 03:28N 47°33' W 002°54'0 0.0
2018-Jun-11 02:55N 47°33' W 002°54'0 0.0
2018-Jun-11 02:25N 47°33' W 002°54'0 0.0
2018-Jun-11 01:58N 47°33' W 002°54'0 0.0
2018-Jun-11 01:25N 47°33' W 002°54'0 0.0
2018-Jun-11 00:58N 47°33' W 002°54'0 0.0
2018-Jun-11 00:28N 47°33' W 002°54'0 0.0
2018-Jun-10 23:58N 47°33' W 002°54'0 0.0
2018-Jun-10 23:25N 47°33' W 002°54'0 0.0
2018-Jun-10 22:55N 47°33' W 002°54'0 0.0
2018-Jun-10 22:28N 47°33' W 002°54'0 0.0
2018-Jun-10 21:58N 47°33' W 002°54'0 0.0
2018-Jun-10 21:28N 47°33' W 002°54'0 0.0
2018-Jun-10 20:55N 47°33' W 002°54'0 0.0
2018-Jun-10 20:28N 47°33' W 002°54'0 0.0
2018-Jun-10 19:58N 47°33' W 002°54'0 0.0
2018-Jun-10 19:28N 47°33' W 002°54'0 0.0
2018-Jun-10 18:58N 47°33' W 002°54'0 0.0
2018-Jun-10 18:25N 47°33' W 002°54'0 0.0
2018-Jun-10 17:55N 47°33' W 002°54'0 0.0
2018-Jun-10 17:28N 47°33' W 002°54'0 0.0
2018-Jun-10 16:55N 47°33' W 002°54'0 0.0
2018-Jun-10 16:28N 47°33' W 002°54'0 0.0
2018-Jun-10 15:55N 47°33' W 002°54'0 0.0
2018-Jun-10 14:52N 47°33' W 002°54'0 0.0
2018-Jun-10 13:58N 47°33' W 002°54'0 0.0
2018-Jun-10 13:28N 47°33' W 002°54'0 0.0
2018-Jun-10 11:37N 47°33' W 002°54'0 0.0
2018-Jun-10 11:28N 47°33' W 002°54'0 0.0
2018-Jun-10 10:58N 47°33' W 002°54'0 0.0
2018-Jun-10 10:28N 47°33' W 002°54'0 0.0
2018-Jun-10 09:58N 47°33' W 002°54'0 0.0
2018-Jun-10 09:28N 47°33' W 002°54'0 0.0
2018-Jun-10 08:58N 47°33' W 002°54'0 0.0
2018-Jun-10 08:28N 47°33' W 002°54'0 0.0
2018-Jun-10 07:58N 47°33' W 002°54'0 0.0
2018-Jun-10 07:28N 47°33' W 002°54'0 0.0
2018-Jun-10 06:58N 47°33' W 002°54'0 0.0
2018-Jun-10 06:13N 47°33' W 002°54'0 0.0
2018-Jun-10 05:55N 47°33' W 002°54'0 0.0
2018-Jun-10 05:28N 47°33' W 002°54'0 0.0
2018-Jun-10 04:58N 47°33' W 002°54'0 0.0
2018-Jun-10 04:28N 47°33' W 002°54'0 0.0
2018-Jun-10 03:58N 47°33' W 002°54'0 0.0
2018-Jun-10 03:28N 47°33' W 002°54'0 0.0
2018-Jun-10 02:55N 47°33' W 002°54'0 0.0
2018-Jun-10 02:28N 47°33' W 002°54'0 0.0
2018-Jun-10 01:58N 47°33' W 002°54'0 0.0
2018-Jun-10 01:28N 47°33' W 002°54'0 0.0
2018-Jun-10 00:58N 47°33' W 002°54'0 0.0
2018-Jun-10 00:28N 47°33' W 002°54'0 0.0
2018-Jun-09 23:55N 47°33' W 002°54'0 0.0
2018-Jun-09 23:25N 47°33' W 002°54'0 0.0
2018-Jun-09 22:58N 47°33' W 002°54'0 0.0
2018-Jun-09 22:25N 47°33' W 002°54'0 0.0
2018-Jun-09 21:58N 47°33' W 002°54'0 0.0
2018-Jun-09 21:28N 47°33' W 002°54'0 0.0
2018-Jun-09 20:58N 47°33' W 002°54'0 0.0
2018-Jun-09 20:28N 47°33' W 002°54'0 0.0
2018-Jun-09 19:58N 47°33' W 002°54'0 0.0
2018-Jun-09 19:28N 47°33' W 002°54'0 0.0
2018-Jun-09 18:58N 47°33' W 002°54'0 0.0
2018-Jun-09 18:28N 47°33' W 002°54'0 0.0
2018-Jun-09 17:58N 47°33' W 002°54'0 0.0
2018-Jun-09 17:25N 47°33' W 002°54'0 0.0
2018-Jun-09 16:58N 47°33' W 002°54'0 0.0
2018-Jun-09 16:28N 47°33' W 002°54'0 0.0
2018-Jun-09 15:55N 47°33' W 002°54'0 0.0
2018-Jun-09 14:58N 47°33' W 002°54'0 0.0
2018-Jun-09 14:25N 47°33' W 002°54'0 0.0
2018-Jun-09 13:58N 47°33' W 002°54'0 0.0
2018-Jun-09 13:28N 47°33' W 002°54'0 0.0
2018-Jun-09 12:58N 47°33' W 002°54'0 0.0
2018-Jun-09 12:28N 47°33' W 002°54'0 0.0
2018-Jun-09 11:10N 47°33' W 002°54'0 0.0
2018-Jun-09 10:52N 47°33' W 002°54'0 0.0
2018-Jun-09 10:28N 47°33' W 002°54'0 0.0
2018-Jun-09 09:58N 47°33' W 002°54'0 0.0
2018-Jun-09 09:28N 47°33' W 002°54'0 0.0
2018-Jun-09 08:58N 47°33' W 002°54'0 0.0
2018-Jun-09 08:28N 47°33' W 002°54'0 0.0
2018-Jun-09 07:58N 47°33' W 002°54'0 0.0
2018-Jun-09 07:28N 47°33' W 002°54'0 0.0
2018-Jun-09 06:19N 47°33' W 002°54'0 0.0
2018-Jun-09 05:58N 47°33' W 002°54'0 0.0
2018-Jun-09 05:28N 47°33' W 002°54'0 0.0
2018-Jun-09 00:40N 47°33' W 002°54'0 0.0
2018-Jun-09 00:28N 47°33' W 002°54'0 0.0
2018-Jun-08 23:58N 47°33' W 002°54'0 0.0
2018-Jun-08 23:25N 47°33' W 002°54'0 0.0
2018-Jun-08 22:58N 47°33' W 002°54'0 0.0
2018-Jun-08 22:28N 47°33' W 002°54'0 0.0
2018-Jun-08 21:55N 47°33' W 002°54'0 0.0
2018-Jun-08 21:28N 47°33' W 002°54'0 0.0
2018-Jun-08 20:55N 47°33' W 002°54'0 0.0
2018-Jun-08 20:28N 47°33' W 002°54'0 0.0
2018-Jun-08 19:52N 47°33' W 002°54'0 0.0
2018-Jun-08 19:28N 47°33' W 002°54'0 0.1
2018-Jun-08 19:00N 47°33' W 002°54'1 2.4
2018-Jun-08 18:29N 47°31' W 002°54'3 6.6
2018-Jun-08 18:00N 47°29' W 002°51'3 7.0
2018-Jun-08 17:31N 47°26' W 002°48'4 6.9
2018-Jun-08 17:00N 47°24' W 002°45'4 7.1
2018-Jun-08 16:30N 47°22' W 002°40'  

Dump ship's entire track history